Terminal Aerodrome Forecast
Issued by NWS Grand Junction, CO

Home | Current Version | Previous Version | Text Only | Print | Product List | Glossary On
Versions: 1 2 3 4 5 6 7 8 9 10 11 12 13 14 15 16 17 18 19 20 21 22 23 24 25 26 27 28 29 30 31 32 33 34 35 36 37
000
FTUS45 KGJT 070540
TAFGJT
TAF
KGJT 070540Z 0706/0806 05007KT P6SM VCSH BKN100 OVC150
     FM070900 12006KT P6SM SCT100 BKN150
     FM071700 14008KT P6SM VCTS SCT080CB BKN120
     FM072000 35008KT P6SM VCTS SCT060CB BKN100
      TEMPO 0720/0724 VRB15G25KT TSRA SCT060 BKN080CB
     FM080100 13014G22KT P6SM VCTS SCT060 OVC080CB=

USA.gov is the U.S. government's official web portal to all federal, state and local government web resources and services.